sensor_id;sensor_type;location;lat;lon;timestamp;temperature;humidity
292;DHT22;23311;48.776;9.162;2024-03-08T00:02:01;3.50;95.50
292;DHT22;23311;48.776;9.162;2024-03-08T00:04:29;3.40;95.50
292;DHT22;23311;48.776;9.162;2024-03-08T00:06:57;3.30;95.50
292;DHT22;23311;48.776;9.162;2024-03-08T00:09:25;3.20;95.50
292;DHT22;23311;48.776;9.162;2024-03-08T00:11:55;3.10;95.50
292;DHT22;23311;48.776;9.162;2024-03-08T00:14:24;3.20;95.50
292;DHT22;23311;48.776;9.162;2024-03-08T00:16:52;3.10;95.50
292;DHT22;23311;48.776;9.162;2024-03-08T00:19:21;3.10;95.50
292;DHT22;23311;48.776;9.162;2024-03-08T00:21:49;3.10;95.50
292;DHT22;23311;48.776;9.162;2024-03-08T00:24:18;3.00;95.50
292;DHT22;23311;48.776;9.162;2024-03-08T00:26:51;2.90;95.50
292;DHT22;23311;48.776;9.162;2024-03-08T00:29:22;2.80;95.50
292;DHT22;23311;48.776;9.162;2024-03-08T00:31:50;2.80;95.50
292;DHT22;23311;48.776;9.162;2024-03-08T00:34:19;2.80;95.50
292;DHT22;23311;48.776;9.162;2024-03-08T00:36:47;2.90;95.50
292;DHT22;23311;48.776;9.162;2024-03-08T00:39:16;2.90;95.50
292;DHT22;23311;48.776;9.162;2024-03-08T00:41:44;2.80;95.50
292;DHT22;23311;48.776;9.162;2024-03-08T00:44:13;2.70;95.50
292;DHT22;23311;48.776;9.162;2024-03-08T00:46:43;2.50;95.50
292;DHT22;23311;48.776;9.162;2024-03-08T00:49:11;2.40;95.50
292;DHT22;23311;48.776;9.162;2024-03-08T00:51:40;2.30;95.50
292;DHT22;23311;48.776;9.162;2024-03-08T00:54:08;2.20;95.50
292;DHT22;23311;48.776;9.162;2024-03-08T00:56:36;2.10;95.50
292;DHT22;23311;48.776;9.162;2024-03-08T00:59:07;2.00;95.50
292;DHT22;23311;48.776;9.162;2024-03-08T01:01:35;1.90;95.50
292;DHT22;23311;48.776;9.162;2024-03-08T01:04:04;1.90;95.50
292;DHT22;23311;48.776;9.162;2024-03-08T01:06:33;1.70;95.50
292;DHT22;23311;48.776;9.162;2024-03-08T01:09:01;1.70;95.50
292;DHT22;23311;48.776;9.162;2024-03-08T01:11:29;1.60;95.50
292;DHT22;23311;48.776;9.162;2024-03-08T01:13:58;1.50;95.50
292;DHT22;23311;48.776;9.162;2024-03-08T01:16:26;1.50;95.50
292;DHT22;23311;48.776;9.162;2024-03-08T01:18:54;1.40;95.50
292;DHT22;23311;48.776;9.162;2024-03-08T01:21:24;1.40;95.50
292;DHT22;23311;48.776;9.162;2024-03-08T01:23:52;1.40;95.50
292;DHT22;23311;48.776;9.162;2024-03-08T01:26:21;1.50;95.50
292;DHT22;23311;48.776;9.162;2024-03-08T01:28:49;1.40;95.50
292;DHT22;23311;48.776;9.162;2024-03-08T01:31:17;1.40;95.50
292;DHT22;23311;48.776;9.162;2024-03-08T01:33:46;1.40;95.50
292;DHT22;23311;48.776;9.162;2024-03-08T01:36:15;1.40;95.50
292;DHT22;23311;48.776;9.162;2024-03-08T01:38:44;1.60;95.50
292;DHT22;23311;48.776;9.162;2024-03-08T01:41:13;1.60;95.50
292;DHT22;23311;48.776;9.162;2024-03-08T01:43:43;1.50;95.50
292;DHT22;23311;48.776;9.162;2024-03-08T01:46:14;1.50;95.50
292;DHT22;23311;48.776;9.162;2024-03-08T01:48:44;1.40;95.50
292;DHT22;23311;48.776;9.162;2024-03-08T01:51:13;1.60;95.50
292;DHT22;23311;48.776;9.162;2024-03-08T01:53:44;1.40;95.50
292;DHT22;23311;48.776;9.162;2024-03-08T01:56:14;1.40;95.50
292;DHT22;23311;48.776;9.162;2024-03-08T01:58:42;1.30;95.50
292;DHT22;23311;48.776;9.162;2024-03-08T02:01:12;1.20;95.50
292;DHT22;23311;48.776;9.162;2024-03-08T02:03:42;1.20;95.50
292;DHT22;23311;48.776;9.162;2024-03-08T02:06:12;1.20;95.50
292;DHT22;23311;48.776;9.162;2024-03-08T02:08:43;1.30;95.50
292;DHT22;23311;48.776;9.162;2024-03-08T02:11:12;1.20;95.50
292;DHT22;23311;48.776;9.162;2024-03-08T02:13:42;1.20;95.50
292;DHT22;23311;48.776;9.162;2024-03-08T02:16:11;1.20;95.50
292;DHT22;23311;48.776;9.162;2024-03-08T02:18:39;1.20;95.50
292;DHT22;23311;48.776;9.162;2024-03-08T02:21:09;1.10;95.50
292;DHT22;23311;48.776;9.162;2024-03-08T02:23:37;1.10;95.50
292;DHT22;23311;48.776;9.162;2024-03-08T02:26:06;1.00;95.50
292;DHT22;23311;48.776;9.162;2024-03-08T02:28:34;1.10;95.50
292;DHT22;23311;48.776;9.162;2024-03-08T02:31:02;1.00;95.50
292;DHT22;23311;48.776;9.162;2024-03-08T02:33:35;0.90;95.50
292;DHT22;23311;48.776;9.162;2024-03-08T02:36:06;0.90;95.50
292;DHT22;23311;48.776;9.162;2024-03-08T02:38:39;1.00;95.50
292;DHT22;23311;48.776;9.162;2024-03-08T02:41:08;1.40;95.50
292;DHT22;23311;48.776;9.162;2024-03-08T02:43:37;1.20;95.50
292;DHT22;23311;48.776;9.162;2024-03-08T02:46:10;1.00;95.50
292;DHT22;23311;48.776;9.162;2024-03-08T02:48:38;0.90;95.50
292;DHT22;23311;48.776;9.162;2024-03-08T02:51:08;0.80;95.50
292;DHT22;23311;48.776;9.162;2024-03-08T02:53:39;0.90;95.50
292;DHT22;23311;48.776;9.162;2024-03-08T02:56:07;1.10;95.50
292;DHT22;23311;48.776;9.162;2024-03-08T02:58:39;1.00;95.50
292;DHT22;23311;48.776;9.162;2024-03-08T03:01:08;1.00;95.50
292;DHT22;23311;48.776;9.162;2024-03-08T03:03:37;1.00;95.50
292;DHT22;23311;48.776;9.162;2024-03-08T03:06:05;1.00;95.50
292;DHT22;23311;48.776;9.162;2024-03-08T03:08:35;1.00;95.50
292;DHT22;23311;48.776;9.162;2024-03-08T03:11:06;1.40;95.50
292;DHT22;23311;48.776;9.162;2024-03-08T03:13:34;1.50;95.50
292;DHT22;23311;48.776;9.162;2024-03-08T03:16:03;1.30;95.50
292;DHT22;23311;48.776;9.162;2024-03-08T03:18:31;1.10;95.50
292;DHT22;23311;48.776;9.162;2024-03-08T03:21:00;1.20;95.50
292;DHT22;23311;48.776;9.162;2024-03-08T03:23:34;1.10;95.50
292;DHT22;23311;48.776;9.162;2024-03-08T03:26:05;1.00;95.50
292;DHT22;23311;48.776;9.162;2024-03-08T03:28:34;0.90;95.50
292;DHT22;23311;48.776;9.162;2024-03-08T03:31:05;0.80;95.50
292;DHT22;23311;48.776;9.162;2024-03-08T03:33:36;1.00;95.50
292;DHT22;23311;48.776;9.162;2024-03-08T03:36:28;0.80;95.50
292;DHT22;23311;48.776;9.162;2024-03-08T03:39:21;0.70;95.50
292;DHT22;23311;48.776;9.162;2024-03-08T03:42:15;1.00;95.50
292;DHT22;23311;48.776;9.162;2024-03-08T03:44:44;1.20;95.50
292;DHT22;23311;48.776;9.162;2024-03-08T03:47:36;1.40;95.50
292;DHT22;23311;48.776;9.162;2024-03-08T03:50:06;1.40;95.50
292;DHT22;23311;48.776;9.162;2024-03-08T03:52:38;1.40;95.50
292;DHT22;23311;48.776;9.162;2024-03-08T03:55:06;1.50;95.50
292;DHT22;23311;48.776;9.162;2024-03-08T03:57:36;1.40;95.50
292;DHT22;23311;48.776;9.162;2024-03-08T04:00:28;1.40;95.50
292;DHT22;23311;48.776;9.162;2024-03-08T04:02:56;1.50;95.50
292;DHT22;23311;48.776;9.162;2024-03-08T04:05:51;1.50;95.50
292;DHT22;23311;48.776;9.162;2024-03-08T04:08:19;1.70;95.50
292;DHT22;23311;48.776;9.162;2024-03-08T04:11:11;1.50;95.50
292;DHT22;23311;48.776;9.162;2024-03-08T04:13:40;1.40;95.50
292;DHT22;23311;48.776;9.162;2024-03-08T04:16:31;1.30;95.50
292;DHT22;23311;48.776;9.162;2024-03-08T04:19:00;1.30;95.50
292;DHT22;23311;48.776;9.162;2024-03-08T04:21:54;1.30;95.50
292;DHT22;23311;48.776;9.162;2024-03-08T04:24:22;1.30;95.50
292;DHT22;23311;48.776;9.162;2024-03-08T04:27:14;1.20;95.50
292;DHT22;23311;48.776;9.162;2024-03-08T04:29:43;1.10;95.50
292;DHT22;23311;48.776;9.162;2024-03-08T04:32:35;1.00;95.50
292;DHT22;23311;48.776;9.162;2024-03-08T04:35:03;0.90;95.50
292;DHT22;23311;48.776;9.162;2024-03-08T04:37:54;0.80;95.50
292;DHT22;23311;48.776;9.162;2024-03-08T04:40:49;1.10;95.50
292;DHT22;23311;48.776;9.162;2024-03-08T04:43:40;1.40;95.50
292;DHT22;23311;48.776;9.162;2024-03-08T04:46:10;1.40;95.50
292;DHT22;23311;48.776;9.162;2024-03-08T04:49:02;1.30;95.50
292;DHT22;23311;48.776;9.162;2024-03-08T04:51:30;1.30;95.50
292;DHT22;23311;48.776;9.162;2024-03-08T04:54:21;1.10;95.50
292;DHT22;23311;48.776;9.162;2024-03-08T04:56:49;0.90;95.50
292;DHT22;23311;48.776;9.162;2024-03-08T04:59:41;0.80;95.50
292;DHT22;23311;48.776;9.162;2024-03-08T05:02:10;0.80;95.50
292;DHT22;23311;48.776;9.162;2024-03-08T05:05:02;0.80;95.50
292;DHT22;23311;48.776;9.162;2024-03-08T05:07:33;0.60;95.50
292;DHT22;23311;48.776;9.162;2024-03-08T05:10:26;0.80;95.50
292;DHT22;23311;48.776;9.162;2024-03-08T05:12:54;1.00;95.50
292;DHT22;23311;48.776;9.162;2024-03-08T05:15:47;1.20;95.50
292;DHT22;23311;48.776;9.162;2024-03-08T05:18:17;1.10;95.50
292;DHT22;23311;48.776;9.162;2024-03-08T05:21:09;1.10;95.50
292;DHT22;23311;48.776;9.162;2024-03-08T05:23:37;1.10;95.50
292;DHT22;23311;48.776;9.162;2024-03-08T05:26:30;1.00;95.50
292;DHT22;23311;48.776;9.162;2024-03-08T05:29:03;1.00;95.50
292;DHT22;23311;48.776;9.162;2024-03-08T05:31:38;0.90;95.50
292;DHT22;23311;48.776;9.162;2024-03-08T05:34:16;1.00;95.50
292;DHT22;23311;48.776;9.162;2024-03-08T05:36:46;0.80;95.50
292;DHT22;23311;48.776;9.162;2024-03-08T05:39:16;0.80;95.50
292;DHT22;23311;48.776;9.162;2024-03-08T05:42:09;0.80;95.50
292;DHT22;23311;48.776;9.162;2024-03-08T05:45:00;0.80;95.50
292;DHT22;23311;48.776;9.162;2024-03-08T05:47:53;0.80;95.50
292;DHT22;23311;48.776;9.162;2024-03-08T05:50:30;1.00;95.50
292;DHT22;23311;48.776;9.162;2024-03-08T05:53:01;0.90;95.50
292;DHT22;23311;48.776;9.162;2024-03-08T05:55:34;0.80;95.50
292;DHT22;23311;48.776;9.162;2024-03-08T05:58:02;0.70;95.50
292;DHT22;23311;48.776;9.162;2024-03-08T06:00:53;0.80;95.50
292;DHT22;23311;48.776;9.162;2024-03-08T06:03:21;0.90;95.50
292;DHT22;23311;48.776;9.162;2024-03-08T06:06:15;1.00;95.50
292;DHT22;23311;48.776;9.162;2024-03-08T06:08:44;1.00;95.50
292;DHT22;23311;48.776;9.162;2024-03-08T06:11:38;1.20;95.50
292;DHT22;23311;48.776;9.162;2024-03-08T06:14:06;1.40;95.50
292;DHT22;23311;48.776;9.162;2024-03-08T06:16:58;1.40;95.50
292;DHT22;23311;48.776;9.162;2024-03-08T06:19:27;1.30;95.50
292;DHT22;23311;48.776;9.162;2024-03-08T06:22:20;1.40;95.50
292;DHT22;23311;48.776;9.162;2024-03-08T06:24:48;1.40;95.50
292;DHT22;23311;48.776;9.162;2024-03-08T06:27:38;1.40;95.50
292;DHT22;23311;48.776;9.162;2024-03-08T06:30:14;1.40;95.50
292;DHT22;23311;48.776;9.162;2024-03-08T06:33:05;1.60;95.50
292;DHT22;23311;48.776;9.162;2024-03-08T06:35:34;1.60;95.50
292;DHT22;23311;48.776;9.162;2024-03-08T06:38:29;1.60;95.50
292;DHT22;23311;48.776;9.162;2024-03-08T06:40:57;1.80;95.50
292;DHT22;23311;48.776;9.162;2024-03-08T06:44:11;1.90;95.50
292;DHT22;23311;48.776;9.162;2024-03-08T06:46:39;2.00;95.50
292;DHT22;23311;48.776;9.162;2024-03-08T06:49:31;2.10;95.50
292;DHT22;23311;48.776;9.162;2024-03-08T06:52:23;2.20;95.50
292;DHT22;23311;48.776;9.162;2024-03-08T06:55:16;2.20;95.50
292;DHT22;23311;48.776;9.162;2024-03-08T06:57:46;2.40;95.50
292;DHT22;23311;48.776;9.162;2024-03-08T07:00:38;2.60;95.50
292;DHT22;23311;48.776;9.162;2024-03-08T07:03:07;2.80;95.50
292;DHT22;23311;48.776;9.162;2024-03-08T07:06:01;2.90;95.50
292;DHT22;23311;48.776;9.162;2024-03-08T07:08:34;3.10;95.50
292;DHT22;23311;48.776;9.162;2024-03-08T07:11:27;3.20;95.50
292;DHT22;23311;48.776;9.162;2024-03-08T07:13:55;3.40;95.50
292;DHT22;23311;48.776;9.162;2024-03-08T07:16:47;3.50;95.50
292;DHT22;23311;48.776;9.162;2024-03-08T07:19:15;3.70;95.50
292;DHT22;23311;48.776;9.162;2024-03-08T07:22:07;3.80;95.50
292;DHT22;23311;48.776;9.162;2024-03-08T07:24:35;3.80;95.50
292;DHT22;23311;48.776;9.162;2024-03-08T07:27:46;3.90;95.50
292;DHT22;23311;48.776;9.162;2024-03-08T07:30:15;4.10;95.50
292;DHT22;23311;48.776;9.162;2024-03-08T07:33:28;4.10;95.50
292;DHT22;23311;48.776;9.162;2024-03-08T07:35:57;4.20;95.50
292;DHT22;23311;48.776;9.162;2024-03-08T07:38:49;4.30;95.50
292;DHT22;23311;48.776;9.162;2024-03-08T07:41:18;4.30;95.50
292;DHT22;23311;48.776;9.162;2024-03-08T07:44:12;4.30;95.50
292;DHT22;23311;48.776;9.162;2024-03-08T07:46:41;4.30;95.50
292;DHT22;23311;48.776;9.162;2024-03-08T07:49:55;4.40;95.50
292;DHT22;23311;48.776;9.162;2024-03-08T07:52:27;4.50;95.50
292;DHT22;23311;48.776;9.162;2024-03-08T07:55:19;4.70;95.50
292;DHT22;23311;48.776;9.162;2024-03-08T07:57:51;4.70;95.50
292;DHT22;23311;48.776;9.162;2024-03-08T08:00:43;4.80;95.50
292;DHT22;23311;48.776;9.162;2024-03-08T08:03:34;4.90;95.50
292;DHT22;23311;48.776;9.162;2024-03-08T08:06:27;4.60;95.50
292;DHT22;23311;48.776;9.162;2024-03-08T08:08:58;4.70;95.50
292;DHT22;23311;48.776;9.162;2024-03-08T08:11:31;4.80;95.50
292;DHT22;23311;48.776;9.162;2024-03-08T08:14:24;4.90;95.50
292;DHT22;23311;48.776;9.162;2024-03-08T08:17:17;4.70;95.50
292;DHT22;23311;48.776;9.162;2024-03-08T08:19:47;4.80;95.50
292;DHT22;23311;48.776;9.162;2024-03-08T08:22:15;4.80;95.50
292;DHT22;23311;48.776;9.162;2024-03-08T08:24:45;4.80;95.50
292;DHT22;23311;48.776;9.162;2024-03-08T08:27:13;4.60;95.50
292;DHT22;23311;48.776;9.162;2024-03-08T08:29:41;4.70;95.50
292;DHT22;23311;48.776;9.162;2024-03-08T08:32:10;4.80;95.50
292;DHT22;23311;48.776;9.162;2024-03-08T08:34:39;4.80;95.50
292;DHT22;23311;48.776;9.162;2024-03-08T08:37:09;4.80;95.50
292;DHT22;23311;48.776;9.162;2024-03-08T08:39:38;5.00;95.50
292;DHT22;23311;48.776;9.162;2024-03-08T08:42:06;5.00;95.50
292;DHT22;23311;48.776;9.162;2024-03-08T08:44:36;5.10;95.50
292;DHT22;23311;48.776;9.162;2024-03-08T08:47:04;5.00;95.50
292;DHT22;23311;48.776;9.162;2024-03-08T08:49:42;5.20;95.50
292;DHT22;23311;48.776;9.162;2024-03-08T08:52:11;5.30;95.50
292;DHT22;23311;48.776;9.162;2024-03-08T08:54:43;5.30;95.50
292;DHT22;23311;48.776;9.162;2024-03-08T08:57:16;5.30;95.50
292;DHT22;23311;48.776;9.162;2024-03-08T08:59:44;5.30;95.50
292;DHT22;23311;48.776;9.162;2024-03-08T09:02:13;5.10;95.50
292;DHT22;23311;48.776;9.162;2024-03-08T09:04:46;5.40;95.50
292;DHT22;23311;48.776;9.162;2024-03-08T09:07:15;5.40;95.50
292;DHT22;23311;48.776;9.162;2024-03-08T09:09:45;5.40;95.50
292;DHT22;23311;48.776;9.162;2024-03-08T09:12:13;5.20;95.50
292;DHT22;23311;48.776;9.162;2024-03-08T09:14:42;5.20;95.50
292;DHT22;23311;48.776;9.162;2024-03-08T09:17:10;5.40;95.50
292;DHT22;23311;48.776;9.162;2024-03-08T09:19:38;5.30;95.50
292;DHT22;23311;48.776;9.162;2024-03-08T09:22:08;5.50;95.50
292;DHT22;23311;48.776;9.162;2024-03-08T09:24:38;5.60;95.50
292;DHT22;23311;48.776;9.162;2024-03-08T09:27:06;5.50;95.50
292;DHT22;23311;48.776;9.162;2024-03-08T09:29:37;5.40;95.50
292;DHT22;23311;48.776;9.162;2024-03-08T09:32:05;5.50;95.50
292;DHT22;23311;48.776;9.162;2024-03-08T09:34:34;5.70;95.50
292;DHT22;23311;48.776;9.162;2024-03-08T09:37:04;5.80;95.50
292;DHT22;23311;48.776;9.162;2024-03-08T09:39:34;5.80;95.50
292;DHT22;23311;48.776;9.162;2024-03-08T09:42:04;5.90;95.50
292;DHT22;23311;48.776;9.162;2024-03-08T09:44:32;5.90;95.50
292;DHT22;23311;48.776;9.162;2024-03-08T09:47:03;5.90;95.50
292;DHT22;23311;48.776;9.162;2024-03-08T09:49:34;6.00;95.50
292;DHT22;23311;48.776;9.162;2024-03-08T09:52:05;5.90;95.50
292;DHT22;23311;48.776;9.162;2024-03-08T09:54:34;5.90;95.50
292;DHT22;23311;48.776;9.162;2024-03-08T09:57:04;6.10;95.50
292;DHT22;23311;48.776;9.162;2024-03-08T09:59:32;6.30;95.50
292;DHT22;23311;48.776;9.162;2024-03-08T10:02:15;6.20;95.50
292;DHT22;23311;48.776;9.162;2024-03-08T10:04:44;6.30;95.50
292;DHT22;23311;48.776;9.162;2024-03-08T10:07:14;6.30;95.50
292;DHT22;23311;48.776;9.162;2024-03-08T10:09:44;6.50;95.50
292;DHT22;23311;48.776;9.162;2024-03-08T10:12:17;6.60;95.50
292;DHT22;23311;48.776;9.162;2024-03-08T10:14:46;6.50;95.50
292;DHT22;23311;48.776;9.162;2024-03-08T10:17:14;6.50;95.50
292;DHT22;23311;48.776;9.162;2024-03-08T10:19:49;6.70;95.50
292;DHT22;23311;48.776;9.162;2024-03-08T10:22:18;7.10;95.50
292;DHT22;23311;48.776;9.162;2024-03-08T10:24:48;7.10;95.50
292;DHT22;23311;48.776;9.162;2024-03-08T10:27:17;7.10;95.50
292;DHT22;23311;48.776;9.162;2024-03-08T10:29:47;7.30;95.50
292;DHT22;23311;48.776;9.162;2024-03-08T10:32:16;7.30;95.50
292;DHT22;23311;48.776;9.162;2024-03-08T10:34:44;7.40;95.50
292;DHT22;23311;48.776;9.162;2024-03-08T10:37:15;7.20;95.50
292;DHT22;23311;48.776;9.162;2024-03-08T10:39:53;7.10;95.50
292;DHT22;23311;48.776;9.162;2024-03-08T10:42:28;7.30;95.50
292;DHT22;23311;48.776;9.162;2024-03-08T10:45:06;7.50;95.50
292;DHT22;23311;48.776;9.162;2024-03-08T10:47:41;7.80;95.50
292;DHT22;23311;48.776;9.162;2024-03-08T10:50:18;8.20;95.50
292;DHT22;23311;48.776;9.162;2024-03-08T10:52:49;7.70;95.50
292;DHT22;23311;48.776;9.162;2024-03-08T10:55:20;7.70;95.50
292;DHT22;23311;48.776;9.162;2024-03-08T10:57:48;7.40;95.50
292;DHT22;23311;48.776;9.162;2024-03-08T11:00:16;7.80;95.50
292;DHT22;23311;48.776;9.162;2024-03-08T11:02:53;7.40;95.50
292;DHT22;23311;48.776;9.162;2024-03-08T11:05:32;7.90;95.50
292;DHT22;23311;48.776;9.162;2024-03-08T11:08:17;8.10;95.50
292;DHT22;23311;48.776;9.162;2024-03-08T11:10:48;8.50;95.50
292;DHT22;23311;48.776;9.162;2024-03-08T11:13:34;8.70;95.50
292;DHT22;23311;48.776;9.162;2024-03-08T11:16:07;8.60;95.50
292;DHT22;23311;48.776;9.162;2024-03-08T11:18:37;8.70;95.50
292;DHT22;23311;48.776;9.162;2024-03-08T11:21:08;8.60;95.50
292;DHT22;23311;48.776;9.162;2024-03-08T11:23:40;8.30;95.50
292;DHT22;23311;48.776;9.162;2024-03-08T11:26:18;8.40;95.50
292;DHT22;23311;48.776;9.162;2024-03-08T11:28:47;8.70;95.50
292;DHT22;23311;48.776;9.162;2024-03-08T11:31:23;8.90;95.50
292;DHT22;23311;48.776;9.162;2024-03-08T11:33:51;8.90;95.50
292;DHT22;23311;48.776;9.162;2024-03-08T11:36:22;8.60;95.50
292;DHT22;23311;48.776;9.162;2024-03-08T11:38:52;8.40;95.50
292;DHT22;23311;48.776;9.162;2024-03-08T11:41:24;8.30;95.50
292;DHT22;23311;48.776;9.162;2024-03-08T11:44:05;8.40;95.50
292;DHT22;23311;48.776;9.162;2024-03-08T11:46:34;8.70;95.50
292;DHT22;23311;48.776;9.162;2024-03-08T11:49:02;8.70;95.50
292;DHT22;23311;48.776;9.162;2024-03-08T11:51:32;9.20;95.50
292;DHT22;23311;48.776;9.162;2024-03-08T11:54:01;9.50;95.50
292;DHT22;23311;48.776;9.162;2024-03-08T11:56:32;9.60;95.50
292;DHT22;23311;48.776;9.162;2024-03-08T11:59:00;9.50;95.50
292;DHT22;23311;48.776;9.162;2024-03-08T12:01:29;9.90;95.50
292;DHT22;23311;48.776;9.162;2024-03-08T12:03:59;9.80;95.50
292;DHT22;23311;48.776;9.162;2024-03-08T12:06:36;10.20;95.50
292;DHT22;23311;48.776;9.162;2024-03-08T12:09:08;10.60;95.50
292;DHT22;23311;48.776;9.162;2024-03-08T12:11:38;10.50;95.50
292;DHT22;23311;48.776;9.162;2024-03-08T12:14:07;9.20;95.50
292;DHT22;23311;48.776;9.162;2024-03-08T12:16:36;9.10;95.50
292;DHT22;23311;48.776;9.162;2024-03-08T12:19:05;9.90;95.50
292;DHT22;23311;48.776;9.162;2024-03-08T12:21:35;10.20;95.50
292;DHT22;23311;48.776;9.162;2024-03-08T12:24:05;10.60;95.50
292;DHT22;23311;48.776;9.162;2024-03-08T12:26:38;11.20;94.80
292;DHT22;23311;48.776;9.162;2024-03-08T12:29:17;11.30;94.10
292;DHT22;23311;48.776;9.162;2024-03-08T12:31:48;11.30;94.10
292;DHT22;23311;48.776;9.162;2024-03-08T12:34:16;11.60;93.20
292;DHT22;23311;48.776;9.162;2024-03-08T12:36:45;11.20;93.70
292;DHT22;23311;48.776;9.162;2024-03-08T12:39:18;11.20;94.00
292;DHT22;23311;48.776;9.162;2024-03-08T12:41:51;11.20;94.10
292;DHT22;23311;48.776;9.162;2024-03-08T12:44:19;11.30;94.10
292;DHT22;23311;48.776;9.162;2024-03-08T12:46:49;11.60;93.50
292;DHT22;23311;48.776;9.162;2024-03-08T12:49:20;11.50;93.40
292;DHT22;23311;48.776;9.162;2024-03-08T12:51:50;11.30;94.00
292;DHT22;23311;48.776;9.162;2024-03-08T12:54:20;11.20;93.80
292;DHT22;23311;48.776;9.162;2024-03-08T12:56:52;11.30;94.10
292;DHT22;23311;48.776;9.162;2024-03-08T12:59:22;11.60;94.00
292;DHT22;23311;48.776;9.162;2024-03-08T13:01:51;12.00;92.80
292;DHT22;23311;48.776;9.162;2024-03-08T13:04:21;11.90;92.50
292;DHT22;23311;48.776;9.162;2024-03-08T13:06:49;11.60;93.00
292;DHT22;23311;48.776;9.162;2024-03-08T13:09:21;11.70;93.10
292;DHT22;23311;48.776;9.162;2024-03-08T13:11:50;11.70;92.90
292;DHT22;23311;48.776;9.162;2024-03-08T13:14:22;11.80;92.80
292;DHT22;23311;48.776;9.162;2024-03-08T13:16:50;12.00;92.30
292;DHT22;23311;48.776;9.162;2024-03-08T13:19:19;11.90;92.90
292;DHT22;23311;48.776;9.162;2024-03-08T13:21:49;11.70;92.90
292;DHT22;23311;48.776;9.162;2024-03-08T13:24:17;11.80;93.20
292;DHT22;23311;48.776;9.162;2024-03-08T13:26:47;11.80;92.70
292;DHT22;23311;48.776;9.162;2024-03-08T13:29:17;11.70;93.20
292;DHT22;23311;48.776;9.162;2024-03-08T13:31:47;11.80;92.80
292;DHT22;23311;48.776;9.162;2024-03-08T13:34:19;11.80;93.00
292;DHT22;23311;48.776;9.162;2024-03-08T13:36:55;12.10;92.40
292;DHT22;23311;48.776;9.162;2024-03-08T13:39:28;11.80;92.20
292;DHT22;23311;48.776;9.162;2024-03-08T13:41:58;11.70;93.00
292;DHT22;23311;48.776;9.162;2024-03-08T13:44:26;11.80;93.40
292;DHT22;23311;48.776;9.162;2024-03-08T13:46:56;11.80;93.20
292;DHT22;23311;48.776;9.162;2024-03-08T13:49:25;11.50;93.10
292;DHT22;23311;48.776;9.162;2024-03-08T13:51:54;11.10;94.30
292;DHT22;23311;48.776;9.162;2024-03-08T13:54:24;10.60;95.50
292;DHT22;23311;48.776;9.162;2024-03-08T13:56:54;10.10;95.50
292;DHT22;23311;48.776;9.162;2024-03-08T13:59:22;10.00;95.50
292;DHT22;23311;48.776;9.162;2024-03-08T14:01:51;10.00;95.50
292;DHT22;23311;48.776;9.162;2024-03-08T14:04:20;9.90;95.50
292;DHT22;23311;48.776;9.162;2024-03-08T14:06:49;10.00;95.50
292;DHT22;23311;48.776;9.162;2024-03-08T14:09:18;10.10;95.50
292;DHT22;23311;48.776;9.162;2024-03-08T14:11:46;10.10;95.50
292;DHT22;23311;48.776;9.162;2024-03-08T14:14:15;10.20;95.50
292;DHT22;23311;48.776;9.162;2024-03-08T14:16:44;10.20;95.50
292;DHT22;23311;48.776;9.162;2024-03-08T14:19:12;10.10;95.50
292;DHT22;23311;48.776;9.162;2024-03-08T14:21:43;10.10;95.50
292;DHT22;23311;48.776;9.162;2024-03-08T14:24:11;10.00;95.50
292;DHT22;23311;48.776;9.162;2024-03-08T14:26:39;9.90;95.50
292;DHT22;23311;48.776;9.162;2024-03-08T14:29:09;10.00;95.50
292;DHT22;23311;48.776;9.162;2024-03-08T14:31:37;9.80;95.50
292;DHT22;23311;48.776;9.162;2024-03-08T14:34:07;9.80;95.50
292;DHT22;23311;48.776;9.162;2024-03-08T14:36:35;9.70;95.50
292;DHT22;23311;48.776;9.162;2024-03-08T14:39:06;9.70;95.50
292;DHT22;23311;48.776;9.162;2024-03-08T14:41:34;9.80;95.50
292;DHT22;23311;48.776;9.162;2024-03-08T14:44:02;9.80;95.50
292;DHT22;23311;48.776;9.162;2024-03-08T14:46:31;9.80;95.50
292;DHT22;23311;48.776;9.162;2024-03-08T14:48:59;9.90;95.50
292;DHT22;23311;48.776;9.162;2024-03-08T14:51:28;10.00;95.50
292;DHT22;23311;48.776;9.162;2024-03-08T14:53:56;9.90;95.50
292;DHT22;23311;48.776;9.162;2024-03-08T14:56:25;9.90;95.50
292;DHT22;23311;48.776;9.162;2024-03-08T14:58:54;9.90;95.50
292;DHT22;23311;48.776;9.162;2024-03-08T15:01:26;9.80;95.50
292;DHT22;23311;48.776;9.162;2024-03-08T15:03:57;9.80;95.50
292;DHT22;23311;48.776;9.162;2024-03-08T15:06:29;9.90;95.50
292;DHT22;23311;48.776;9.162;2024-03-08T15:08:58;9.90;95.50
292;DHT22;23311;48.776;9.162;2024-03-08T15:11:28;10.00;95.50
292;DHT22;23311;48.776;9.162;2024-03-08T15:13:56;9.90;95.50
292;DHT22;23311;48.776;9.162;2024-03-08T15:16:25;9.90;95.50
292;DHT22;23311;48.776;9.162;2024-03-08T15:18:53;9.90;95.50
292;DHT22;23311;48.776;9.162;2024-03-08T15:21:21;9.90;95.50
292;DHT22;23311;48.776;9.162;2024-03-08T15:23:53;10.00;95.50
292;DHT22;23311;48.776;9.162;2024-03-08T15:26:21;10.10;95.50
292;DHT22;23311;48.776;9.162;2024-03-08T15:28:51;10.10;95.50
292;DHT22;23311;48.776;9.162;2024-03-08T15:31:21;10.10;95.50
292;DHT22;23311;48.776;9.162;2024-03-08T15:33:51;10.10;95.50
292;DHT22;23311;48.776;9.162;2024-03-08T15:36:28;10.20;95.50
292;DHT22;23311;48.776;9.162;2024-03-08T15:38:57;10.20;95.50
292;DHT22;23311;48.776;9.162;2024-03-08T15:41:26;10.20;95.50
292;DHT22;23311;48.776;9.162;2024-03-08T15:43:56;10.20;95.50
292;DHT22;23311;48.776;9.162;2024-03-08T15:46:26;10.20;95.50
292;DHT22;23311;48.776;9.162;2024-03-08T15:48:55;10.10;95.50
292;DHT22;23311;48.776;9.162;2024-03-08T15:51:23;10.10;95.50
292;DHT22;23311;48.776;9.162;2024-03-08T15:53:52;10.20;95.50
292;DHT22;23311;48.776;9.162;2024-03-08T15:56:23;10.20;95.50
292;DHT22;23311;48.776;9.162;2024-03-08T15:58:52;10.30;95.50
292;DHT22;23311;48.776;9.162;2024-03-08T16:01:22;10.20;95.50
292;DHT22;23311;48.776;9.162;2024-03-08T16:03:52;10.20;95.50
292;DHT22;23311;48.776;9.162;2024-03-08T16:06:21;10.20;95.50
292;DHT22;23311;48.776;9.162;2024-03-08T16:08:51;10.20;95.50
292;DHT22;23311;48.776;9.162;2024-03-08T16:11:20;10.20;95.50
292;DHT22;23311;48.776;9.162;2024-03-08T16:13:50;10.10;95.50
292;DHT22;23311;48.776;9.162;2024-03-08T16:16:18;10.10;95.50
292;DHT22;23311;48.776;9.162;2024-03-08T16:18:48;10.10;95.50
292;DHT22;23311;48.776;9.162;2024-03-08T16:21:16;10.10;95.50
292;DHT22;23311;48.776;9.162;2024-03-08T16:23:44;10.10;95.50
292;DHT22;23311;48.776;9.162;2024-03-08T16:26:15;10.10;95.50
292;DHT22;23311;48.776;9.162;2024-03-08T16:28:45;10.40;95.50
292;DHT22;23311;48.776;9.162;2024-03-08T16:31:13;10.60;95.50
292;DHT22;23311;48.776;9.162;2024-03-08T16:33:42;10.60;95.50
292;DHT22;23311;48.776;9.162;2024-03-08T16:36:12;10.60;95.50
292;DHT22;23311;48.776;9.162;2024-03-08T16:38:42;10.60;95.50
292;DHT22;23311;48.776;9.162;2024-03-08T16:41:13;10.40;95.50
292;DHT22;23311;48.776;9.162;2024-03-08T16:43:41;10.30;95.50
292;DHT22;23311;48.776;9.162;2024-03-08T16:46:11;10.20;95.50
292;DHT22;23311;48.776;9.162;2024-03-08T16:48:40;10.00;95.50
292;DHT22;23311;48.776;9.162;2024-03-08T16:51:11;9.80;95.50
292;DHT22;23311;48.776;9.162;2024-03-08T16:53:40;9.80;95.50